createdAt,value
2022-11-27T00:01:08.614Z,20.92
2022-11-27T00:03:41.485Z,23.02
2022-11-27T00:06:16.157Z,23.83
2022-11-27T00:08:44.096Z,22.58
2022-11-27T00:11:13.096Z,21.05
2022-11-27T00:13:40.522Z,20.48
2022-11-27T00:16:08.572Z,21.20
2022-11-27T00:18:36.392Z,20.15
2022-11-27T00:21:04.800Z,19.98
2022-11-27T00:23:32.629Z,20.50
2022-11-27T00:26:00.320Z,19.42
2022-11-27T00:28:27.805Z,22.05
2022-11-27T00:30:59.230Z,21.65
2022-11-27T00:33:26.611Z,21.30
2022-11-27T00:35:54.412Z,19.27
2022-11-27T00:38:22.710Z,20.52
2022-11-27T00:40:50.344Z,20.30
2022-11-27T00:43:17.742Z,19.50
2022-11-27T00:45:48.878Z,20.48
2022-11-27T00:48:16.304Z,19.27
2022-11-27T00:50:44.060Z,19.85
2022-11-27T00:53:11.430Z,21.08
2022-11-27T00:55:39.032Z,20.63
2022-11-27T00:58:06.433Z,21.58
2022-11-27T01:00:34.100Z,19.50
2022-11-27T01:03:01.674Z,20.35
2022-11-27T01:05:29.324Z,21.38
2022-11-27T01:07:56.785Z,20.48
2022-11-27T01:10:24.659Z,23.95
2022-11-27T01:12:52.011Z,21.38
2022-11-27T01:15:28.929Z,19.10
2022-11-27T01:17:56.333Z,20.20
2022-11-27T01:20:24.118Z,20.35
2022-11-27T01:22:51.452Z,19.63
2022-11-27T01:25:21.912Z,20.55
2022-11-27T01:27:53.056Z,19.95
2022-11-27T01:30:20.727Z,18.73
2022-11-27T01:32:48.353Z,19.80
2022-11-27T01:35:34.362Z,19.00
2022-11-27T01:38:20.202Z,19.65
2022-11-27T01:40:50.318Z,19.40
2022-11-27T01:43:17.751Z,20.85
2022-11-27T01:45:45.379Z,21.25
2022-11-27T01:48:13.514Z,22.38
2022-11-27T01:50:41.136Z,22.55
2022-11-27T01:53:17.572Z,23.75
2022-11-27T01:55:55.467Z,23.23
2022-11-27T01:58:25.180Z,25.30
2022-11-27T02:00:52.849Z,21.63
2022-11-27T02:03:20.389Z,22.60
2022-11-27T02:05:48.175Z,22.50
2022-11-27T02:08:16.769Z,20.73
2022-11-27T02:10:48.031Z,21.48
2022-11-27T02:13:18.228Z,21.40
2022-11-27T02:16:17.659Z,22.23
2022-11-27T02:19:05.710Z,21.13
2022-11-27T02:21:33.325Z,23.13
2022-11-27T02:24:00.674Z,20.65
2022-11-27T02:26:40.278Z,20.50
2022-11-27T02:29:11.115Z,21.58
2022-11-27T02:31:50.039Z,22.65
2022-11-27T02:34:23.277Z,24.40
2022-11-27T02:36:57.704Z,23.75
2022-11-27T02:39:32.070Z,22.85
2022-11-27T02:42:14.012Z,19.83
2022-11-27T02:44:44.749Z,21.37
2022-11-27T02:47:13.406Z,20.92
2022-11-27T02:49:41.884Z,20.75
2022-11-27T02:52:11.652Z,22.38
2022-11-27T02:54:40.367Z,21.02
2022-11-27T02:57:09.160Z,21.88
2022-11-27T02:59:37.099Z,22.80
2022-11-27T03:02:09.888Z,22.55
2022-11-27T03:04:41.427Z,24.13
2022-11-27T03:07:12.419Z,23.52
2022-11-27T03:09:41.871Z,23.17
2022-11-27T03:12:10.989Z,22.00
2022-11-27T03:14:39.203Z,24.15
2022-11-27T03:17:06.966Z,21.63
2022-11-27T03:22:52.143Z,20.50
2022-11-27T03:25:19.553Z,22.40
2022-11-27T03:27:49.593Z,20.35
2022-11-27T03:30:17.699Z,20.88
2022-11-27T03:32:45.596Z,21.70
2022-11-27T03:35:24.036Z,21.55
2022-11-27T03:37:52.553Z,21.75
2022-11-27T03:40:23.625Z,20.83
2022-11-27T03:42:56.996Z,22.17
2022-11-27T03:45:36.205Z,23.27
2022-11-27T03:48:17.309Z,22.52
2022-11-27T03:50:53.836Z,21.20
2022-11-27T03:56:47.363Z,21.83
2022-11-27T03:59:22.185Z,20.88
2022-11-27T04:01:49.719Z,21.83
2022-11-27T04:04:17.500Z,18.90
2022-11-27T04:06:44.901Z,20.55
2022-11-27T04:09:12.534Z,18.70
2022-11-27T04:11:44.567Z,20.00
2022-11-27T04:16:39.411Z,21.42
2022-11-27T04:19:07.134Z,22.98
2022-11-27T04:21:34.516Z,21.08
2022-11-27T04:24:02.157Z,20.75
2022-11-27T04:26:29.555Z,20.15
2022-11-27T04:28:57.198Z,22.23
2022-11-27T04:31:24.659Z,20.05
2022-11-27T04:33:52.574Z,20.80
2022-11-27T04:36:20.024Z,21.08
2022-11-27T04:38:50.482Z,21.17
2022-11-27T04:41:18.021Z,20.88
2022-11-27T04:43:45.654Z,21.35
2022-11-27T04:46:13.201Z,21.00
2022-11-27T04:48:40.867Z,21.58
2022-11-27T04:51:08.234Z,22.52
2022-11-27T04:53:35.886Z,22.13
2022-11-27T04:56:03.354Z,24.40
2022-11-27T04:58:31.006Z,25.27
2022-11-27T05:00:58.446Z,27.15
2022-11-27T05:03:28.144Z,21.95
2022-11-27T05:05:56.370Z,23.20
2022-11-27T05:08:24.756Z,23.17
2022-11-27T05:10:59.110Z,23.65
2022-11-27T05:13:27.141Z,24.70
2022-11-27T05:15:54.621Z,22.90
2022-11-27T05:18:22.437Z,22.23
2022-11-27T05:20:56.777Z,22.85
2022-11-27T05:23:24.672Z,23.40
2022-11-27T05:25:52.397Z,21.77
2022-11-27T05:28:25.177Z,22.15
2022-11-27T05:30:54.280Z,21.30
2022-11-27T05:33:22.029Z,19.77
2022-11-27T05:35:49.450Z,26.33
2022-11-27T05:38:17.034Z,28.27
2022-11-27T05:44:16.562Z,23.30
2022-11-27T05:49:57.592Z,19.58
2022-11-27T05:52:25.303Z,21.33
2022-11-27T05:54:52.668Z,18.92
2022-11-27T05:57:20.425Z,18.85
2022-11-27T05:59:47.837Z,19.60
2022-11-27T06:02:21.574Z,19.38
2022-11-27T06:04:51.239Z,20.77
2022-11-27T06:07:19.107Z,20.85
2022-11-27T06:09:46.467Z,21.67
2022-11-27T06:12:14.181Z,20.35
2022-11-27T06:14:41.872Z,19.83
2022-11-27T06:17:09.722Z,20.63
2022-11-27T06:19:37.071Z,22.60
2022-11-27T06:22:04.752Z,22.45
2022-11-27T06:24:32.129Z,21.00
2022-11-27T06:26:59.740Z,22.38
2022-11-27T06:29:27.039Z,21.98
2022-11-27T06:31:54.830Z,21.02
2022-11-27T06:34:22.289Z,19.20
2022-11-27T06:36:49.943Z,18.88
2022-11-27T06:39:17.344Z,17.95
2022-11-27T06:41:45.005Z,18.42
2022-11-27T06:44:12.336Z,18.55
2022-11-27T06:46:39.953Z,19.85
2022-11-27T06:49:07.307Z,20.88
2022-11-27T06:51:34.993Z,18.30
2022-11-27T06:54:02.710Z,20.02
2022-11-27T06:56:31.188Z,19.63
2022-11-27T06:58:59.327Z,15.93
2022-11-27T07:01:41.066Z,17.88
2022-11-27T07:04:12.167Z,15.88
2022-11-27T07:06:40.052Z,15.40
2022-11-27T07:09:07.680Z,17.58
2022-11-27T07:11:35.421Z,15.20
2022-11-27T07:14:04.608Z,15.20
2022-11-27T07:16:33.970Z,14.93
2022-11-27T07:19:03.148Z,18.77
2022-11-27T07:21:30.820Z,17.77
2022-11-27T07:23:58.408Z,15.82
2022-11-27T07:26:27.164Z,15.23
2022-11-27T07:28:55.111Z,13.85
2022-11-27T07:31:24.195Z,15.45
2022-11-27T07:33:51.549Z,16.45
2022-11-27T07:36:26.549Z,16.15
2022-11-27T07:38:54.000Z,14.88
2022-11-27T07:41:21.681Z,17.33
2022-11-27T07:43:49.253Z,16.15
2022-11-27T07:46:18.409Z,14.68
2022-11-27T07:52:17.700Z,13.55
2022-11-27T07:54:45.364Z,13.43
2022-11-27T07:57:13.023Z,12.15
2022-11-27T07:59:45.768Z,14.27
2022-11-27T08:02:14.786Z,14.32
2022-11-27T08:04:42.891Z,13.15
2022-11-27T08:07:10.627Z,13.63
2022-11-27T08:09:38.354Z,12.57
2022-11-27T08:12:06.420Z,15.57
2022-11-27T08:14:57.662Z,15.48
2022-11-27T08:17:25.018Z,16.38
2022-11-27T08:19:52.676Z,14.90
2022-11-27T08:22:20.221Z,16.45
2022-11-27T08:24:47.926Z,17.42
2022-11-27T08:37:43.640Z,19.25
2022-11-27T08:43:53.691Z,15.63
2022-11-27T08:49:53.435Z,20.08
2022-11-27T08:55:34.864Z,12.00
2022-11-27T08:58:02.480Z,13.18
2022-11-27T09:00:30.414Z,14.05
2022-11-27T09:06:25.777Z,20.77
2022-11-27T09:08:56.593Z,21.92
2022-11-27T09:11:24.453Z,19.60
2022-11-27T09:13:52.162Z,17.73
2022-11-27T09:19:56.851Z,14.70
2022-11-27T09:22:24.538Z,15.68
2022-11-27T09:24:51.916Z,15.13
2022-11-27T09:27:19.551Z,17.65
2022-11-27T09:29:46.936Z,15.25
2022-11-27T09:32:14.632Z,18.65
2022-11-27T09:34:42.551Z,19.77
2022-11-27T09:37:10.487Z,18.08
2022-11-27T09:39:37.835Z,24.95
2022-11-27T09:42:06.144Z,16.15
2022-11-27T09:48:08.674Z,15.25
2022-11-27T09:53:59.704Z,16.70
2022-11-27T09:56:28.316Z,16.13
2022-11-27T09:58:59.430Z,16.85
2022-11-27T10:01:34.848Z,20.90
2022-11-27T10:04:15.443Z,15.73
2022-11-27T10:06:52.099Z,19.88
2022-11-27T10:09:19.449Z,16.50
2022-11-27T10:11:53.069Z,14.77
2022-11-27T10:14:20.467Z,12.13
2022-11-27T10:16:55.123Z,12.30
2022-11-27T10:19:35.493Z,15.50
2022-11-27T10:22:16.622Z,13.05
2022-11-27T10:25:05.626Z,12.30
2022-11-27T10:27:38.517Z,13.77
2022-11-27T10:30:14.958Z,12.55
2022-11-27T10:32:58.452Z,12.13
2022-11-27T10:35:30.545Z,11.63
2022-11-27T10:40:33.972Z,11.60
2022-11-27T10:43:05.093Z,12.43
2022-11-27T10:49:04.645Z,15.98
2022-11-27T10:51:33.865Z,12.57
2022-11-27T10:54:02.181Z,11.02
2022-11-27T10:59:53.203Z,11.40
2022-11-27T11:02:32.009Z,9.85
2022-11-27T11:05:32.911Z,11.57
2022-11-27T11:07:59.111Z,9.45
2022-11-27T11:10:26.572Z,9.82
2022-11-27T11:13:04.348Z,12.07
2022-11-27T11:15:33.193Z,10.63
2022-11-27T11:18:03.653Z,8.43
2022-11-27T11:20:30.961Z,8.15
2022-11-27T11:22:58.577Z,11.10
2022-11-27T11:25:25.933Z,11.40
2022-11-27T11:27:53.617Z,12.80
2022-11-27T11:30:26.150Z,9.05
2022-11-27T11:36:16.198Z,8.10
2022-11-27T11:38:45.495Z,9.20
2022-11-27T11:41:13.646Z,8.98
2022-11-27T11:43:41.377Z,7.13
2022-11-27T11:49:40.902Z,7.50
2022-11-27T11:52:26.939Z,7.28
2022-11-27T11:54:57.252Z,6.85
2022-11-27T11:57:36.908Z,18.65
2022-11-27T12:03:39.643Z,10.15
2022-11-27T12:09:41.230Z,12.52
2022-11-27T12:12:14.761Z,11.60
2022-11-27T12:14:47.272Z,14.80
2022-11-27T12:17:23.580Z,12.32
2022-11-27T12:20:17.096Z,17.42
2022-11-27T12:22:44.670Z,10.30
2022-11-27T12:25:28.522Z,10.85
2022-11-27T12:31:41.422Z,10.40
2022-11-27T12:34:27.597Z,13.20
2022-11-27T12:37:21.000Z,14.15
2022-11-27T12:43:24.782Z,14.85
2022-11-27T12:45:55.188Z,15.38
2022-11-27T12:48:22.575Z,14.25
2022-11-27T12:50:51.347Z,12.07
2022-11-27T12:53:24.716Z,13.75
2022-11-27T12:56:11.478Z,13.75
2022-11-27T12:58:44.849Z,12.57
2022-11-27T13:01:15.212Z,13.10
2022-11-27T13:03:54.526Z,11.50
2022-11-27T13:06:23.872Z,11.73
2022-11-27T13:08:54.061Z,13.15
2022-11-27T13:11:25.341Z,12.30
2022-11-27T13:13:55.211Z,11.95
2022-11-27T13:16:29.296Z,12.88
2022-11-27T13:19:00.027Z,14.40
2022-11-27T13:21:32.325Z,13.73
2022-11-27T13:24:00.661Z,14.10
2022-11-27T13:26:43.313Z,12.93
2022-11-27T13:29:36.929Z,14.10
2022-11-27T13:35:36.262Z,17.77
2022-11-27T13:38:30.131Z,15.73
2022-11-27T13:40:59.088Z,15.93
2022-11-27T13:43:26.748Z,16.23
2022-11-27T13:49:21.243Z,13.18
2022-11-27T13:55:04.879Z,15.90
2022-11-27T13:59:59.593Z,17.95
2022-11-27T14:02:39.679Z,13.77
2022-11-27T14:05:07.456Z,12.23
2022-11-27T14:07:38.909Z,12.95
2022-11-27T14:10:18.082Z,12.57
2022-11-27T14:12:54.868Z,12.95
2022-11-27T14:15:24.324Z,17.13
2022-11-27T14:17:53.680Z,17.65
2022-11-27T14:20:24.831Z,18.00
2022-11-27T14:23:11.653Z,18.35
2022-11-27T14:25:40.450Z,16.98
2022-11-27T14:28:19.026Z,17.63
2022-11-27T14:30:52.451Z,17.98
2022-11-27T14:33:19.824Z,17.50
2022-11-27T14:35:48.357Z,15.45
2022-11-27T14:38:15.991Z,16.67
2022-11-27T14:40:43.683Z,13.95
2022-11-27T14:43:21.215Z,16.52
2022-11-27T14:45:50.881Z,14.20
2022-11-27T14:48:22.837Z,12.43
2022-11-27T14:50:50.998Z,13.85
2022-11-27T15:00:01.470Z,19.52
2022-11-27T15:02:29.481Z,16.05
2022-11-27T15:05:04.804Z,17.48
2022-11-27T15:07:38.057Z,16.85
2022-11-27T15:10:20.307Z,21.85
2022-11-27T15:12:47.952Z,22.98
2022-11-27T15:15:18.381Z,14.77
2022-11-27T15:17:48.305Z,16.90
2022-11-27T15:20:19.177Z,17.00
2022-11-27T15:22:50.538Z,16.33
2022-11-27T15:25:29.572Z,13.20
2022-11-27T15:27:56.913Z,17.55
2022-11-27T15:30:24.537Z,22.05
2022-11-27T15:32:52.636Z,49.15
2022-11-27T15:35:24.884Z,26.50
2022-11-27T15:37:52.893Z,31.30
2022-11-27T15:40:34.214Z,28.35
2022-11-27T15:43:01.749Z,18.83
2022-11-27T15:45:32.487Z,20.38
2022-11-27T15:48:00.661Z,19.55
2022-11-27T15:50:29.181Z,21.70
2022-11-27T15:52:56.607Z,18.77
2022-11-27T15:55:24.519Z,20.48
2022-11-27T15:57:51.854Z,19.63
2022-11-27T16:00:19.752Z,21.05
2022-11-27T16:02:47.105Z,23.00
2022-11-27T16:05:14.821Z,19.67
2022-11-27T16:07:42.214Z,18.38
2022-11-27T16:10:10.049Z,17.58
2022-11-27T16:12:37.460Z,23.45
2022-11-27T16:15:08.053Z,38.08
2022-11-27T16:17:35.393Z,28.13
2022-11-27T16:20:03.294Z,19.45
2022-11-27T16:22:30.680Z,23.33
2022-11-27T16:24:58.336Z,24.48
2022-11-27T16:27:25.696Z,22.55
2022-11-27T16:29:53.378Z,22.77
2022-11-27T16:32:20.819Z,24.00
2022-11-27T16:34:50.184Z,26.50
2022-11-27T16:37:18.672Z,20.92
2022-11-27T16:39:46.363Z,22.42
2022-11-27T16:42:13.664Z,21.55
2022-11-27T16:44:41.451Z,21.42
2022-11-27T16:47:08.905Z,27.63
2022-11-27T16:49:36.603Z,24.10
2022-11-27T16:52:04.011Z,22.33
2022-11-27T16:54:31.626Z,21.48
2022-11-27T16:56:58.951Z,22.75
2022-11-27T16:59:26.587Z,24.02
2022-11-27T17:01:53.998Z,20.90
2022-11-27T17:04:21.664Z,19.15
2022-11-27T17:06:49.448Z,20.40
2022-11-27T17:09:17.543Z,19.25
2022-11-27T17:11:45.874Z,18.02
2022-11-27T17:14:13.567Z,18.23
2022-11-27T17:16:40.933Z,18.35
2022-11-27T17:19:12.093Z,18.13
2022-11-27T17:21:39.500Z,17.33
2022-11-27T17:24:14.468Z,18.27
2022-11-27T17:26:43.017Z,18.92
2022-11-27T17:29:12.114Z,17.25
2022-11-27T17:31:39.516Z,23.30
2022-11-27T17:34:07.496Z,19.17
2022-11-27T17:36:37.183Z,21.75
2022-11-27T17:39:05.685Z,21.10
2022-11-27T17:41:33.286Z,19.90
2022-11-27T17:44:02.996Z,18.85
2022-11-27T17:46:34.133Z,17.70
2022-11-27T17:49:03.451Z,17.88
2022-11-27T17:51:31.719Z,20.30
2022-11-27T17:54:00.311Z,22.55
2022-11-27T17:56:28.381Z,19.48
2022-11-27T17:58:57.939Z,19.67
2022-11-27T18:01:26.446Z,19.60
2022-11-27T18:03:54.696Z,20.10
2022-11-27T18:06:22.249Z,22.30
2022-11-27T18:08:52.523Z,24.65
2022-11-27T18:11:21.064Z,24.73
2022-11-27T18:13:49.175Z,28.02
2022-11-27T18:16:18.429Z,27.30
2022-11-27T18:18:46.433Z,25.17
2022-11-27T18:21:18.288Z,23.83
2022-11-27T18:24:20.677Z,23.83
2022-11-27T18:27:00.611Z,20.27
2022-11-27T18:29:22.820Z,23.67
2022-11-27T18:32:04.221Z,21.23
2022-11-27T18:34:31.923Z,22.13
2022-11-27T18:36:59.348Z,21.77
2022-11-27T18:39:27.051Z,22.02
2022-11-27T18:41:54.401Z,24.23
2022-11-27T18:44:22.028Z,32.63
2022-11-27T18:46:55.441Z,50.47
2022-11-27T18:49:23.379Z,36.42
2022-11-27T18:51:51.505Z,29.05
2022-11-27T18:54:19.321Z,27.85
2022-11-27T18:56:46.880Z,26.92
2022-11-27T18:59:14.498Z,31.83
2022-11-27T19:01:42.849Z,28.08
2022-11-27T19:04:11.152Z,31.38
2022-11-27T19:06:39.374Z,28.63
2022-11-27T19:09:07.045Z,29.48
2022-11-27T19:11:34.776Z,26.08
2022-11-27T19:14:02.467Z,28.33
2022-11-27T19:16:32.235Z,39.30
2022-11-27T19:19:00.615Z,32.47
2022-11-27T19:21:29.166Z,27.70
2022-11-27T19:23:57.887Z,42.03
2022-11-27T19:29:41.546Z,31.13
2022-11-27T19:32:09.207Z,27.30
2022-11-27T19:34:36.955Z,25.83
2022-11-27T19:37:04.263Z,31.15
2022-11-27T19:39:31.922Z,25.27
2022-11-27T19:41:59.279Z,38.80
2022-11-27T19:44:27.000Z,30.30
2022-11-27T19:46:54.480Z,29.50
2022-11-27T19:49:22.274Z,32.70
2022-11-27T19:51:49.604Z,32.80
2022-11-27T19:54:17.343Z,31.35
2022-11-27T19:56:45.116Z,27.95
2022-11-27T19:59:12.921Z,29.98
2022-11-27T20:01:48.243Z,27.70
2022-11-27T20:04:15.900Z,36.10
2022-11-27T20:06:43.260Z,35.15
2022-11-27T20:09:11.217Z,30.98
2022-11-27T20:11:38.564Z,28.08
2022-11-27T20:14:06.239Z,28.98
2022-11-27T20:16:34.573Z,34.15
2022-11-27T20:19:22.445Z,32.03
2022-11-27T20:21:49.846Z,33.47
2022-11-27T20:24:17.581Z,36.97
2022-11-27T20:26:45.209Z,32.17
2022-11-27T20:29:13.298Z,27.70
2022-11-27T20:31:41.756Z,29.83
2022-11-27T20:34:14.798Z,31.85
2022-11-27T20:36:42.226Z,28.95
2022-11-27T20:39:10.013Z,31.10
2022-11-27T20:41:37.365Z,33.97
2022-11-27T20:44:05.099Z,33.95
2022-11-27T20:46:32.907Z,36.58
2022-11-27T20:49:00.567Z,36.35
2022-11-27T20:51:28.944Z,36.00
2022-11-27T20:53:57.485Z,32.03
2022-11-27T20:56:24.887Z,34.20
2022-11-27T20:58:52.665Z,32.30
2022-11-27T21:01:21.593Z,30.42
2022-11-27T21:03:50.016Z,31.20
2022-11-27T21:06:18.185Z,34.55
2022-11-27T21:08:46.085Z,35.67
2022-11-27T21:11:19.127Z,32.13
2022-11-27T21:13:46.810Z,30.27
2022-11-27T21:16:14.468Z,32.42
2022-11-27T21:18:42.090Z,32.42
2022-11-27T21:21:10.571Z,31.80
2022-11-27T21:23:39.199Z,31.95
2022-11-27T21:26:25.248Z,29.83
2022-11-27T21:28:53.142Z,31.13
2022-11-27T21:31:22.081Z,29.02
2022-11-27T21:33:53.600Z,33.38
2022-11-27T21:36:22.014Z,36.75
2022-11-27T21:38:52.486Z,34.53
2022-11-27T21:41:20.038Z,26.90
2022-11-27T21:43:48.616Z,28.77
2022-11-27T21:46:18.280Z,28.10
2022-11-27T21:48:46.809Z,26.70
2022-11-27T21:51:14.220Z,30.67
2022-11-27T21:53:42.622Z,27.50
2022-11-27T21:56:10.928Z,28.00
2022-11-27T21:58:38.807Z,29.52
2022-11-27T22:01:08.151Z,28.30
2022-11-27T22:03:41.096Z,30.85
2022-11-27T22:06:36.700Z,30.38
2022-11-27T22:09:04.974Z,29.75
2022-11-27T22:11:32.548Z,32.67
2022-11-27T22:14:01.281Z,31.20
2022-11-27T22:16:30.214Z,33.17
2022-11-27T22:18:58.247Z,31.08
2022-11-27T22:21:26.003Z,33.25
2022-11-27T22:23:53.721Z,29.75
2022-11-27T22:26:22.334Z,29.05
2022-11-27T22:28:50.208Z,29.50
2022-11-27T22:31:18.848Z,30.42
2022-11-27T22:33:46.662Z,35.72
2022-11-27T22:36:21.417Z,33.65
2022-11-27T22:38:50.606Z,31.67
2022-11-27T22:41:18.777Z,33.95
2022-11-27T22:43:46.404Z,34.03
2022-11-27T22:46:18.331Z,35.60
2022-11-27T22:48:46.251Z,33.33
2022-11-27T22:51:13.617Z,33.95
2022-11-27T22:53:41.251Z,34.92
2022-11-27T22:56:09.904Z,37.00
2022-11-27T22:58:41.396Z,36.35
2022-11-27T23:01:13.492Z,39.35
2022-11-27T23:03:41.236Z,37.90
2022-11-27T23:06:12.145Z,36.25
2022-11-27T23:08:41.494Z,34.88
2022-11-27T23:11:09.406Z,35.67
2022-11-27T23:13:37.168Z,34.78
2022-11-27T23:16:05.081Z,33.13
2022-11-27T23:18:33.043Z,34.20
2022-11-27T23:21:00.520Z,32.92
2022-11-27T23:23:28.124Z,31.67
2022-11-27T23:25:55.490Z,35.85
2022-11-27T23:28:23.154Z,34.90
2022-11-27T23:31:08.695Z,33.10
2022-11-27T23:33:38.820Z,34.45
2022-11-27T23:36:06.920Z,33.00
2022-11-27T23:38:34.627Z,31.15
2022-11-27T23:41:15.921Z,32.72
2022-11-27T23:43:43.677Z,31.92
2022-11-27T23:46:12.960Z,31.92
2022-11-27T23:48:40.679Z,30.42
2022-11-27T23:51:08.990Z,31.90
2022-11-27T23:53:36.829Z,32.30
2022-11-27T23:56:11.151Z,34.28
2022-11-27T23:58:42.318Z,31.05
